createdAt,value
2023-05-20T00:02:27.826Z,10.10
2023-05-20T00:04:56.041Z,10.10
2023-05-20T00:07:23.867Z,10.10
2023-05-20T00:09:51.848Z,10.10
2023-05-20T00:12:19.620Z,10.10
2023-05-20T00:14:47.337Z,10.20
2023-05-20T00:17:15.020Z,10.20
2023-05-20T00:19:42.658Z,10.10
2023-05-20T00:22:10.814Z,10.10
2023-05-20T00:24:38.576Z,10.10
2023-05-20T00:27:06.436Z,10.00
2023-05-20T00:29:34.435Z,10.10
2023-05-20T00:32:02.182Z,10.10
2023-05-20T00:34:29.896Z,10.20
2023-05-20T00:36:57.598Z,10.10
2023-05-20T00:39:25.509Z,10.10
2023-05-20T00:41:53.300Z,10.10
2023-05-20T00:44:24.090Z,10.10
2023-05-20T00:46:51.952Z,10.00
2023-05-20T00:49:20.969Z,10.00
2023-05-20T00:51:49.660Z,10.00
2023-05-20T00:54:17.570Z,9.90
2023-05-20T00:56:45.369Z,9.90
2023-05-20T00:59:13.236Z,10.00
2023-05-20T01:01:41.032Z,10.00
2023-05-20T01:04:09.132Z,10.00
2023-05-20T01:06:38.154Z,9.90
2023-05-20T01:09:06.260Z,9.90
2023-05-20T01:11:44.545Z,10.00
2023-05-20T01:14:13.547Z,10.10
2023-05-20T01:16:43.606Z,10.10
2023-05-20T01:19:38.995Z,10.00
2023-05-20T01:22:08.496Z,9.90
2023-05-20T01:24:37.644Z,9.90
2023-05-20T01:27:05.432Z,9.90
2023-05-20T01:29:35.325Z,9.90
2023-05-20T01:32:08.223Z,10.00
2023-05-20T01:34:37.304Z,9.90
2023-05-20T01:37:07.050Z,9.90
2023-05-20T01:39:39.581Z,9.90
2023-05-20T01:42:08.796Z,10.00
2023-05-20T01:44:37.203Z,9.90
2023-05-20T01:47:05.304Z,10.00
2023-05-20T01:49:33.247Z,10.00
2023-05-20T01:52:01.013Z,10.00
2023-05-20T01:54:30.644Z,10.00
2023-05-20T01:56:58.348Z,9.90
2023-05-20T01:59:26.150Z,9.90
2023-05-20T02:01:54.024Z,9.80
2023-05-20T02:04:22.796Z,9.80
2023-05-20T02:06:50.835Z,9.90
2023-05-20T02:09:19.470Z,9.80
2023-05-20T02:11:47.212Z,9.90
2023-05-20T02:14:15.066Z,9.90
2023-05-20T02:16:45.473Z,9.90
2023-05-20T02:19:14.110Z,10.00
2023-05-20T02:21:42.180Z,9.90
2023-05-20T02:24:10.944Z,10.00
2023-05-20T02:26:38.630Z,10.00
2023-05-20T02:29:06.523Z,9.90
2023-05-20T02:31:34.295Z,10.00
2023-05-20T02:34:04.746Z,10.00
2023-05-20T02:36:32.569Z,10.00
2023-05-20T02:39:02.546Z,9.90
2023-05-20T02:41:32.213Z,9.90
2023-05-20T02:43:59.894Z,9.80
2023-05-20T02:46:29.570Z,9.90
2023-05-20T02:48:57.476Z,9.80
2023-05-20T02:51:25.731Z,9.80
2023-05-20T02:53:53.480Z,9.80
2023-05-20T02:56:21.670Z,9.80
2023-05-20T02:58:49.612Z,9.90
2023-05-20T03:01:17.543Z,9.90
2023-05-20T03:03:45.262Z,9.90
2023-05-20T03:06:12.915Z,9.80
2023-05-20T03:08:42.886Z,9.90
2023-05-20T03:11:10.695Z,9.90
2023-05-20T03:13:38.486Z,10.00
2023-05-20T03:16:06.492Z,10.00
2023-05-20T03:18:34.309Z,9.90
2023-05-20T03:21:02.046Z,9.90
2023-05-20T03:23:30.898Z,10.00
2023-05-20T03:25:58.824Z,10.00
2023-05-20T03:28:26.722Z,10.00
2023-05-20T03:30:54.731Z,10.00
2023-05-20T03:33:26.219Z,10.00
2023-05-20T03:35:54.871Z,10.00
2023-05-20T03:38:23.203Z,10.00
2023-05-20T03:40:51.131Z,10.00
2023-05-20T03:43:19.014Z,10.00
2023-05-20T03:45:46.753Z,10.10
2023-05-20T03:48:15.096Z,10.00
2023-05-20T03:50:43.639Z,10.00
2023-05-20T03:53:12.074Z,10.00
2023-05-20T03:55:42.607Z,9.90
2023-05-20T03:58:13.613Z,9.90
2023-05-20T04:00:41.890Z,10.00
2023-05-20T04:03:10.564Z,10.00
2023-05-20T04:05:38.608Z,10.00
2023-05-20T04:08:14.562Z,10.00
2023-05-20T04:10:45.546Z,10.10
2023-05-20T04:13:14.269Z,10.10
2023-05-20T04:15:42.595Z,10.10
2023-05-20T04:18:12.362Z,10.10
2023-05-20T04:20:41.556Z,10.10
2023-05-20T04:23:10.790Z,10.10
2023-05-20T04:25:39.153Z,10.20
2023-05-20T04:28:07.922Z,10.10
2023-05-20T04:30:35.624Z,10.10
2023-05-20T04:33:04.157Z,10.10
2023-05-20T04:35:35.324Z,10.20
2023-05-20T04:38:05.547Z,10.20
2023-05-20T04:40:33.360Z,10.20
2023-05-20T04:43:01.051Z,10.20
2023-05-20T04:45:28.928Z,10.10
2023-05-20T04:47:56.702Z,10.10
2023-05-20T04:50:24.528Z,10.00
2023-05-20T04:52:52.510Z,10.00
2023-05-20T04:55:21.613Z,10.00
2023-05-20T04:57:49.921Z,10.10
2023-05-20T05:00:18.193Z,10.00
2023-05-20T05:02:46.102Z,9.90
2023-05-20T05:05:13.851Z,10.00
2023-05-20T05:07:41.639Z,10.00
2023-05-20T05:10:09.860Z,10.00
2023-05-20T05:12:38.176Z,10.10
2023-05-20T05:15:06.574Z,10.10
2023-05-20T05:17:34.471Z,10.10
2023-05-20T05:20:02.367Z,10.20
2023-05-20T05:22:33.162Z,10.20
2023-05-20T05:25:01.071Z,10.20
2023-05-20T05:27:29.216Z,10.20
2023-05-20T05:29:56.931Z,10.30
2023-05-20T05:32:24.769Z,10.20
2023-05-20T05:34:52.683Z,10.30
2023-05-20T05:37:21.312Z,10.30
2023-05-20T05:39:49.382Z,10.30
2023-05-20T05:42:17.343Z,10.20
2023-05-20T05:44:45.190Z,10.20
2023-05-20T05:47:13.232Z,10.20
2023-05-20T05:49:41.177Z,10.30
2023-05-20T05:52:08.919Z,10.20
2023-05-20T05:54:36.750Z,10.30
2023-05-20T05:57:06.468Z,10.30
2023-05-20T05:59:36.262Z,10.30
2023-05-20T06:02:04.431Z,10.40
2023-05-20T06:04:32.307Z,10.40
2023-05-20T06:07:00.306Z,10.40
2023-05-20T06:09:28.123Z,10.30
2023-05-20T06:11:56.126Z,10.40
2023-05-20T06:14:23.834Z,10.40
2023-05-20T06:16:51.661Z,10.40
2023-05-20T06:19:19.915Z,10.40
2023-05-20T06:21:47.791Z,10.40
2023-05-20T06:24:16.220Z,10.50
2023-05-20T06:26:46.059Z,10.50
2023-05-20T06:29:13.899Z,10.60
2023-05-20T06:31:41.959Z,10.60
2023-05-20T06:34:09.634Z,10.60
2023-05-20T06:36:37.401Z,10.70
2023-05-20T06:39:06.591Z,10.70
2023-05-20T06:41:35.271Z,10.80
2023-05-20T06:44:09.762Z,10.80
2023-05-20T06:46:56.120Z,10.80
2023-05-20T06:49:24.899Z,11.00
2023-05-20T06:51:52.786Z,11.00
2023-05-20T06:54:20.480Z,11.00
2023-05-20T06:56:49.008Z,11.30
2023-05-20T06:59:16.700Z,11.40
2023-05-20T07:01:45.481Z,11.60
2023-05-20T07:04:13.578Z,11.70
2023-05-20T07:06:41.608Z,11.80
2023-05-20T07:09:10.136Z,11.90
2023-05-20T07:11:38.230Z,12.00
2023-05-20T07:14:06.374Z,12.00
2023-05-20T07:16:35.312Z,12.00
2023-05-20T07:19:04.353Z,11.90
2023-05-20T07:21:32.172Z,11.80
2023-05-20T07:24:03.501Z,11.80
2023-05-20T07:26:33.835Z,11.80
2023-05-20T07:29:05.126Z,12.00
2023-05-20T07:31:33.828Z,12.10
2023-05-20T07:34:07.562Z,12.10
2023-05-20T07:36:35.492Z,12.00
2023-05-20T07:39:10.923Z,11.90
2023-05-20T07:41:41.569Z,12.20
2023-05-20T07:44:11.357Z,12.20
2023-05-20T07:46:44.437Z,12.30
2023-05-20T07:49:13.053Z,12.30
2023-05-20T07:51:41.678Z,12.20
2023-05-20T07:54:09.456Z,12.40
2023-05-20T07:56:38.159Z,12.50
2023-05-20T07:59:06.975Z,12.50
2023-05-20T08:01:42.528Z,12.60
2023-05-20T08:04:12.315Z,12.50
2023-05-20T08:06:41.100Z,12.50
2023-05-20T08:09:14.255Z,12.60
2023-05-20T08:12:00.337Z,12.70
2023-05-20T08:14:29.107Z,12.90
2023-05-20T08:16:56.899Z,12.80
2023-05-20T08:19:24.717Z,12.80
2023-05-20T08:21:52.674Z,13.00
2023-05-20T08:24:20.388Z,13.00
2023-05-20T08:26:48.622Z,13.20
2023-05-20T08:29:18.382Z,13.30
2023-05-20T08:31:46.163Z,13.40
2023-05-20T08:34:14.476Z,13.30
2023-05-20T08:36:42.491Z,13.40
2023-05-20T08:39:10.826Z,13.50
2023-05-20T08:41:42.614Z,13.50
2023-05-20T08:44:11.814Z,13.50
2023-05-20T08:46:41.804Z,13.60
2023-05-20T08:49:09.603Z,13.60
2023-05-20T08:51:38.251Z,13.60
2023-05-20T08:54:08.823Z,13.70
2023-05-20T08:56:38.303Z,13.70
2023-05-20T08:59:06.794Z,13.70
2023-05-20T09:01:43.262Z,13.60
2023-05-20T09:04:13.835Z,13.50
2023-05-20T09:06:47.615Z,13.50
2023-05-20T09:09:15.960Z,13.60
2023-05-20T09:11:43.930Z,13.80
2023-05-20T09:14:11.595Z,14.00
2023-05-20T09:16:41.384Z,14.30
2023-05-20T09:19:10.390Z,14.30
2023-05-20T09:21:41.109Z,14.20
2023-05-20T09:24:08.804Z,14.10
2023-05-20T09:26:37.086Z,14.10
2023-05-20T09:29:05.725Z,14.30
2023-05-20T09:31:38.958Z,14.70
2023-05-20T09:34:08.196Z,15.00
2023-05-20T09:36:37.033Z,15.50
2023-05-20T09:39:05.856Z,15.60
2023-05-20T09:41:38.527Z,15.50
2023-05-20T09:44:07.364Z,15.60
2023-05-20T09:46:36.441Z,15.20
2023-05-20T09:49:07.912Z,15.30
2023-05-20T09:51:36.040Z,15.40
2023-05-20T09:54:05.091Z,15.40
2023-05-20T09:56:35.186Z,15.60
2023-05-20T09:59:05.277Z,16.00
2023-05-20T10:01:37.326Z,16.50
2023-05-20T10:04:07.453Z,17.00
2023-05-20T10:06:56.424Z,16.80
2023-05-20T10:09:45.392Z,16.50
2023-05-20T10:12:39.981Z,16.20
2023-05-20T10:15:18.337Z,16.20
2023-05-20T10:18:04.225Z,16.20
2023-05-20T10:20:32.066Z,16.20
2023-05-20T10:22:59.952Z,16.30
2023-05-20T10:25:28.668Z,16.40
2023-05-20T10:28:09.080Z,16.30
2023-05-20T10:34:14.709Z,16.30
2023-05-20T10:37:12.923Z,16.90
2023-05-20T10:39:48.883Z,17.40
2023-05-20T10:42:17.114Z,17.40
2023-05-20T10:44:46.694Z,17.00
2023-05-20T10:49:55.402Z,17.30
2023-05-20T10:52:39.292Z,17.30
2023-05-20T10:55:18.917Z,17.00
2023-05-20T10:57:46.650Z,16.80
2023-05-20T11:00:16.867Z,17.00
2023-05-20T11:02:50.541Z,17.20
2023-05-20T11:05:22.120Z,17.90
2023-05-20T11:07:50.068Z,19.40
2023-05-20T11:10:17.630Z,20.40
2023-05-20T11:12:45.531Z,20.10
2023-05-20T11:15:15.026Z,19.70
2023-05-20T11:17:57.475Z,18.50
2023-05-20T11:20:26.480Z,17.60
2023-05-20T11:22:57.917Z,17.20
2023-05-20T11:25:29.033Z,16.80
2023-05-20T11:27:57.184Z,16.80
2023-05-20T11:30:25.878Z,17.00
2023-05-20T11:33:04.238Z,17.50
2023-05-20T11:35:37.410Z,17.80
2023-05-20T11:38:10.738Z,17.80
2023-05-20T11:40:50.376Z,17.60
2023-05-20T11:43:19.553Z,17.50
2023-05-20T11:45:52.936Z,17.30
2023-05-20T11:48:21.421Z,17.30
2023-05-20T11:50:49.165Z,17.30
2023-05-20T11:53:19.055Z,17.20
2023-05-20T11:55:48.984Z,17.20
2023-05-20T11:58:22.812Z,17.00
2023-05-20T12:00:55.160Z,16.80
2023-05-20T12:03:27.453Z,16.80
2023-05-20T12:05:57.561Z,16.70
2023-05-20T12:08:25.199Z,16.60
2023-05-20T12:10:55.363Z,16.60
2023-05-20T12:13:23.863Z,16.50
2023-05-20T12:15:51.508Z,16.60
2023-05-20T12:18:19.180Z,17.00
2023-05-20T12:20:53.997Z,17.50
2023-05-20T12:23:23.524Z,17.60
2023-05-20T12:25:54.193Z,18.10
2023-05-20T12:28:24.472Z,18.20
2023-05-20T12:30:52.226Z,18.00
2023-05-20T12:33:20.901Z,17.80
2023-05-20T12:35:48.709Z,17.50
2023-05-20T12:38:17.467Z,17.20
2023-05-20T12:40:45.263Z,16.90
2023-05-20T12:43:12.865Z,16.70
2023-05-20T12:45:40.554Z,16.60
2023-05-20T12:48:08.428Z,16.50
2023-05-20T12:50:36.512Z,16.30
2023-05-20T12:53:04.280Z,16.20
2023-05-20T12:55:31.994Z,16.30
2023-05-20T12:57:59.692Z,16.40
2023-05-20T13:00:27.529Z,16.60
2023-05-20T13:02:55.281Z,16.60
2023-05-20T13:05:23.266Z,16.70
2023-05-20T13:07:51.499Z,16.70
2023-05-20T13:10:22.914Z,16.60
2023-05-20T13:12:51.006Z,16.60
2023-05-20T13:15:18.884Z,16.80
2023-05-20T13:17:50.551Z,17.10
2023-05-20T13:20:19.888Z,17.30
2023-05-20T13:22:48.030Z,17.40
2023-05-20T13:25:15.668Z,17.50
2023-05-20T13:27:43.328Z,17.50
2023-05-20T13:30:11.349Z,17.60
2023-05-20T13:32:42.293Z,17.50
2023-05-20T13:35:14.631Z,17.40
2023-05-20T13:37:42.529Z,17.60
2023-05-20T13:40:10.814Z,18.40
2023-05-20T13:42:38.651Z,18.70
2023-05-20T13:45:12.377Z,18.40
2023-05-20T13:47:45.929Z,18.20
2023-05-20T13:50:13.921Z,17.90
2023-05-20T13:52:41.534Z,17.70
2023-05-20T13:55:09.865Z,17.40
2023-05-20T13:57:37.970Z,17.30
2023-05-20T14:00:07.169Z,17.00
2023-05-20T14:02:46.212Z,16.90
2023-05-20T14:05:14.063Z,17.00
2023-05-20T14:07:41.668Z,16.90
2023-05-20T14:10:09.453Z,16.90
2023-05-20T14:12:37.378Z,16.90
2023-05-20T14:15:06.816Z,17.10
2023-05-20T14:17:37.076Z,17.30
2023-05-20T14:20:06.151Z,17.80
2023-05-20T14:22:33.898Z,18.20
2023-05-20T14:25:01.495Z,18.10
2023-05-20T14:27:30.410Z,17.90
2023-05-20T14:29:59.975Z,17.70
2023-05-20T14:32:28.661Z,17.10
2023-05-20T14:34:56.341Z,17.00
2023-05-20T14:37:23.936Z,17.00
2023-05-20T14:39:51.685Z,17.00
2023-05-20T14:42:19.562Z,17.00
2023-05-20T14:44:49.482Z,16.90
2023-05-20T14:47:21.503Z,16.80
2023-05-20T14:49:51.626Z,16.80
2023-05-20T14:52:19.417Z,16.80
2023-05-20T14:54:47.351Z,16.70
2023-05-20T14:57:16.149Z,16.70
2023-05-20T14:59:47.250Z,16.70
2023-05-20T15:02:16.216Z,16.70
2023-05-20T15:04:47.067Z,16.60
2023-05-20T15:07:15.822Z,16.60
2023-05-20T15:09:44.100Z,16.60
2023-05-20T15:12:12.263Z,16.70
2023-05-20T15:14:40.145Z,16.70
2023-05-20T15:17:11.037Z,16.80
2023-05-20T15:19:41.946Z,17.10
2023-05-20T15:22:10.368Z,17.70
2023-05-20T15:24:40.919Z,18.10
2023-05-20T15:27:09.091Z,18.30
2023-05-20T15:29:38.847Z,18.30
2023-05-20T15:32:13.499Z,18.50
2023-05-20T15:34:44.828Z,18.60
2023-05-20T15:37:12.678Z,18.70
2023-05-20T15:39:40.481Z,18.80
2023-05-20T15:42:08.256Z,18.70
2023-05-20T15:44:36.589Z,18.50
2023-05-20T15:47:08.820Z,18.60
2023-05-20T15:49:36.721Z,18.40
2023-05-20T15:52:04.805Z,18.10
2023-05-20T15:54:32.984Z,18.00
2023-05-20T15:57:02.778Z,17.80
2023-05-20T15:59:33.471Z,17.70
2023-05-20T16:02:01.822Z,17.50
2023-05-20T16:04:30.290Z,17.50
2023-05-20T16:07:03.603Z,17.40
2023-05-20T16:09:31.448Z,17.30
2023-05-20T16:11:59.068Z,17.20
2023-05-20T16:14:26.610Z,17.20
2023-05-20T16:16:54.248Z,17.20
2023-05-20T16:19:24.010Z,17.10
2023-05-20T16:21:52.288Z,17.00
2023-05-20T16:24:19.885Z,17.00
2023-05-20T16:26:47.431Z,16.90
2023-05-20T16:29:16.575Z,16.70
2023-05-20T16:31:47.018Z,16.70
2023-05-20T16:34:16.462Z,16.60
2023-05-20T16:36:47.687Z,16.50
2023-05-20T16:39:15.928Z,16.40
2023-05-20T16:41:43.890Z,16.30
2023-05-20T16:44:11.527Z,16.20
2023-05-20T16:46:39.277Z,16.10
2023-05-20T16:49:07.188Z,16.10
2023-05-20T16:51:34.892Z,16.00
2023-05-20T16:54:02.457Z,15.80
2023-05-20T16:56:30.098Z,15.70
2023-05-20T16:58:57.910Z,15.50
2023-05-20T17:01:25.943Z,15.30
2023-05-20T17:03:54.171Z,15.00
2023-05-20T17:06:23.938Z,14.70
2023-05-20T17:08:51.579Z,14.50
2023-05-20T17:11:19.215Z,14.40
2023-05-20T17:13:46.735Z,14.20
2023-05-20T17:16:14.485Z,14.00
2023-05-20T17:18:42.560Z,13.90
2023-05-20T17:21:10.172Z,13.70
2023-05-20T17:23:37.703Z,13.60
2023-05-20T17:26:05.569Z,13.50
2023-05-20T17:28:33.145Z,13.50
2023-05-20T17:31:00.868Z,13.40
2023-05-20T17:33:28.512Z,13.10
2023-05-20T17:35:56.387Z,13.10
2023-05-20T17:38:26.392Z,12.90
2023-05-20T17:40:54.456Z,12.80
2023-05-20T17:43:22.335Z,12.80
2023-05-20T17:45:49.901Z,12.90
2023-05-20T17:48:18.018Z,12.90
2023-05-20T17:50:45.604Z,12.90
2023-05-20T17:53:13.177Z,12.80
2023-05-20T17:55:41.099Z,12.70
2023-05-20T17:58:08.885Z,12.70
2023-05-20T18:00:42.275Z,12.60
2023-05-20T18:03:10.555Z,12.60
2023-05-20T18:05:38.305Z,12.60
2023-05-20T18:08:05.978Z,12.50
2023-05-20T18:10:33.698Z,12.40
2023-05-20T18:13:01.599Z,12.30
2023-05-20T18:15:29.137Z,12.30
2023-05-20T18:17:56.736Z,12.30
2023-05-20T18:20:24.529Z,12.30
2023-05-20T18:22:58.215Z,12.20
2023-05-20T18:25:26.179Z,12.20
2023-05-20T18:27:53.852Z,12.00
2023-05-20T18:30:21.770Z,12.00
2023-05-20T18:32:49.872Z,11.80
2023-05-20T18:35:17.660Z,11.80
2023-05-20T18:37:45.297Z,11.80
2023-05-20T18:40:13.259Z,11.70
2023-05-20T18:42:41.082Z,11.70
2023-05-20T18:45:09.142Z,11.50
2023-05-20T18:47:36.963Z,11.30
2023-05-20T18:50:05.183Z,11.30
2023-05-20T18:52:32.756Z,11.30
2023-05-20T18:55:00.584Z,11.30
2023-05-20T18:57:28.263Z,11.30
2023-05-20T18:59:55.912Z,11.20
2023-05-20T19:02:23.693Z,11.10
2023-05-20T19:04:51.890Z,11.20
2023-05-20T19:07:19.745Z,11.20
2023-05-20T19:09:47.379Z,11.10
2023-05-20T19:12:14.935Z,11.10
2023-05-20T19:14:42.671Z,11.10
2023-05-20T19:17:10.565Z,11.10
2023-05-20T19:19:43.688Z,11.00
2023-05-20T19:22:11.764Z,10.90
2023-05-20T19:24:39.391Z,10.90
2023-05-20T19:27:07.199Z,10.90
2023-05-20T19:29:37.897Z,10.70
2023-05-20T19:32:06.079Z,10.60
2023-05-20T19:34:33.753Z,10.50
2023-05-20T19:37:01.506Z,10.50
2023-05-20T19:39:30.169Z,10.50
2023-05-20T19:41:57.854Z,10.50
2023-05-20T19:44:25.567Z,10.50
2023-05-20T19:46:53.687Z,10.50
2023-05-20T19:49:21.389Z,10.40
2023-05-20T19:51:49.676Z,10.30
2023-05-20T19:54:17.373Z,10.40
2023-05-20T19:56:45.106Z,10.20
2023-05-20T19:59:13.446Z,10.20
2023-05-20T20:01:41.459Z,10.30
2023-05-20T20:04:09.078Z,10.30
2023-05-20T20:06:36.659Z,10.20
2023-05-20T20:09:05.140Z,10.10
2023-05-20T20:11:32.798Z,10.20
2023-05-20T20:14:00.525Z,10.30
2023-05-20T20:16:29.330Z,10.30
2023-05-20T20:18:57.013Z,10.30
2023-05-20T20:21:25.804Z,10.30
2023-05-20T20:23:53.534Z,10.30
2023-05-20T20:26:25.836Z,10.30
2023-05-20T20:28:53.524Z,10.30
2023-05-20T20:31:21.286Z,10.20
2023-05-20T20:33:48.880Z,10.20
2023-05-20T20:36:16.829Z,10.30
2023-05-20T20:38:46.869Z,10.20
2023-05-20T20:41:16.269Z,10.20
2023-05-20T20:43:47.503Z,10.10
2023-05-20T20:46:15.111Z,10.20
2023-05-20T20:48:46.896Z,10.10
2023-05-20T20:51:15.848Z,10.10
2023-05-20T20:53:46.279Z,10.00
2023-05-20T20:56:13.901Z,10.00
2023-05-20T20:58:41.791Z,10.00
2023-05-20T21:01:11.515Z,10.10
2023-05-20T21:03:40.409Z,10.00
2023-05-20T21:06:08.316Z,10.00
2023-05-20T21:08:35.883Z,10.00
2023-05-20T21:11:03.436Z,9.90
2023-05-20T21:13:31.138Z,9.90
2023-05-20T21:15:58.807Z,9.90
2023-05-20T21:18:26.448Z,9.80
2023-05-20T21:20:55.644Z,9.70
2023-05-20T21:23:23.681Z,9.80
2023-05-20T21:25:51.376Z,9.80
2023-05-20T21:28:18.954Z,9.80
2023-05-20T21:30:46.516Z,9.90
2023-05-20T21:33:14.170Z,10.00
2023-05-20T21:35:41.791Z,10.00
2023-05-20T21:38:09.988Z,10.00
2023-05-20T21:40:37.544Z,10.00
2023-05-20T21:43:05.199Z,10.10
2023-05-20T21:45:32.876Z,10.10
2023-05-20T21:48:00.564Z,10.10
2023-05-20T21:50:28.269Z,10.10
2023-05-20T21:52:55.931Z,10.10
2023-05-20T21:55:23.907Z,10.10
2023-05-20T21:57:51.566Z,10.10
2023-05-20T22:00:20.742Z,10.10
2023-05-20T22:02:48.958Z,10.20
2023-05-20T22:05:17.493Z,10.20
2023-05-20T22:07:45.084Z,10.30
2023-05-20T22:10:14.238Z,10.20
2023-05-20T22:12:44.537Z,10.20
2023-05-20T22:15:12.292Z,10.10
2023-05-20T22:17:40.003Z,10.20
2023-05-20T22:20:08.726Z,10.20
2023-05-20T22:22:39.320Z,10.10
2023-05-20T22:25:07.538Z,10.10
2023-05-20T22:27:35.261Z,10.00
2023-05-20T22:30:06.101Z,10.00
2023-05-20T22:32:34.453Z,10.00
2023-05-20T22:35:02.760Z,10.10
2023-05-20T22:37:30.501Z,10.10
2023-05-20T22:39:58.149Z,10.10
2023-05-20T22:42:25.889Z,10.10
2023-05-20T22:44:53.583Z,10.10
2023-05-20T22:47:21.266Z,10.10
2023-05-20T22:49:48.923Z,10.10
2023-05-20T22:52:17.376Z,10.20
2023-05-20T22:54:45.040Z,10.10
2023-05-20T22:57:12.784Z,10.00
2023-05-20T22:59:40.410Z,9.90
2023-05-20T23:02:08.233Z,10.00
2023-05-20T23:04:35.972Z,10.10
2023-05-20T23:07:03.771Z,10.10
2023-05-20T23:09:31.608Z,10.10
2023-05-20T23:11:59.373Z,10.00
2023-05-20T23:14:27.392Z,10.10
2023-05-20T23:16:55.087Z,10.10
2023-05-20T23:19:22.977Z,10.10
2023-05-20T23:21:50.662Z,10.00
2023-05-20T23:24:18.439Z,10.00
2023-05-20T23:26:46.085Z,10.10
2023-05-20T23:29:14.711Z,10.10
2023-05-20T23:31:42.352Z,10.20
2023-05-20T23:34:10.189Z,10.20
2023-05-20T23:36:41.948Z,10.10
2023-05-20T23:39:09.703Z,10.10
2023-05-20T23:41:37.273Z,10.10
2023-05-20T23:44:05.040Z,10.10
2023-05-20T23:46:32.703Z,10.10
2023-05-20T23:49:01.928Z,10.20
2023-05-20T23:51:29.768Z,10.10
2023-05-20T23:53:57.485Z,10.20
2023-05-20T23:56:25.077Z,10.20
2023-05-20T23:58:52.758Z,10.20
